Impacts METAR Board INFO
IDs:

KSFO - San Francisco Intl, CA, US

Updated at: 0008 UTC 22 Jan 2018
Potential Impact None Slight Moderate High
Time21/12Z 21/13Z 21/14Z 21/15Z 21/16Z 21/17Z 21/18Z 21/19Z 21/20Z 21/21Z 21/22Z 21/23Z 22/00Z
VIS10 10 10 10 10 10 10 10 10 10 10 10 10
CIG-- -- -- -- -- -- -- 200 200 180 160 160 200
CoverCLRCLRCLRSCTSCTSCTSCTBKNBKNBKNOVCOVCOVC
FltCatVFRVFRVFRVFRVFRVFRVFRVFRVFRVFRVFRVFRVFR
WX--------------------------
WDir0029001501200901008090100100
WSpd0 0 3 0 4 6 0 4 7 5 7 6 4
WGst-- -- -- -- -- -- -- -- -- -- -- -- --
Raw hourly METARs
KSFO 211156Z 00000KT 10SM CLR 07/03 A3029 RMK AO2 SLP258 T00670033 10100 20061 50004
KSFO 211256Z 00000KT 10SM CLR 06/03 A3029 RMK AO2 SLP258 T00610033
KSFO 211356Z 29003KT 10SM CLR 07/04 A3031 RMK AO2 SLP262 T00670039
KSFO 211456Z 00000KT 10SM FEW150 SCT200 06/03 A3033 RMK AO2 SLP269 T00610033 53011
KSFO 211556Z 15004KT 10SM FEW150 SCT200 07/04 A3033 RMK AO2 SLP270 T00670039
KSFO 211656Z 12006KT 10SM FEW140 SCT180 08/05 A3035 RMK AO2 SLP276 T00780050
KSFO 211756Z 00000KT 10SM FEW140 SCT200 10/06 A3038 RMK AO2 SLP287 T01000061 10100 20056 53018
KSFO 211856Z 09004KT 10SM FEW025 SCT150 BKN200 11/06 A3038 RMK AO2 SLP289 T01060061
KSFO 211956Z 10007KT 10SM FEW027 SCT140 BKN200 12/07 A3036 RMK AO2 SLP282 T01170072
KSFO 212056Z 08005KT 10SM FEW008 SCT036 SCT150 BKN180 12/07 A3035 RMK AO2 SLP277 T01170072 58011
KSFO 212156Z 09007KT 10SM SCT037 BKN160 OVC200 12/07 A3033 RMK AO2 SLP271 T01220072
KSFO 212256Z 10006KT 10SM SCT037 BKN160 OVC200 12/08 A3033 RMK AO2 SLP269 T01220078
KSFO 212356Z 10004KT 10SM FEW037 SCT160 OVC200 13/07 A3032 RMK AO2 SLP268 T01330072 10139 20100 56009